sensor_id;sensor_type;location;lat;lon;timestamp;P1;durP1;ratioP1;P2;durP2;ratioP2
34302;SDS011;20785;50.020;19.916;2023-03-20T00:03:56;38.90;;;19.70;;
34302;SDS011;20785;50.020;19.916;2023-03-20T00:09:58;43.80;;;20.50;;
34302;SDS011;20785;50.020;19.916;2023-03-20T00:16:00;36.50;;;19.10;;
34302;SDS011;20785;50.020;19.916;2023-03-20T00:22:02;35.80;;;18.80;;
34302;SDS011;20785;50.020;19.916;2023-03-20T00:28:50;39.80;;;19.80;;
34302;SDS011;20785;50.020;19.916;2023-03-20T00:34:28;34.50;;;18.80;;
34302;SDS011;20785;50.020;19.916;2023-03-20T00:40:31;36.30;;;19.60;;
34302;SDS011;20785;50.020;19.916;2023-03-20T00:46:34;39.80;;;20.10;;
34302;SDS011;20785;50.020;19.916;2023-03-20T00:52:40;43.50;;;20.60;;
34302;SDS011;20785;50.020;19.916;2023-03-20T00:58:41;39.60;;;19.80;;
34302;SDS011;20785;50.020;19.916;2023-03-20T01:04:43;36.50;;;19.10;;
34302;SDS011;20785;50.020;19.916;2023-03-20T01:10:45;39.60;;;20.10;;
34302;SDS011;20785;50.020;19.916;2023-03-20T01:16:48;36.30;;;19.30;;
34302;SDS011;20785;50.020;19.916;2023-03-20T01:22:50;42.60;;;20.80;;
34302;SDS011;20785;50.020;19.916;2023-03-20T01:28:52;39.40;;;19.90;;
34302;SDS011;20785;50.020;19.916;2023-03-20T01:34:54;40.70;;;20.50;;
34302;SDS011;20785;50.020;19.916;2023-03-20T01:40:56;40.00;;;20.00;;
34302;SDS011;20785;50.020;19.916;2023-03-20T01:47:14;40.00;;;20.90;;
34302;SDS011;20785;50.020;19.916;2023-03-20T01:53:22;42.80;;;21.10;;
34302;SDS011;20785;50.020;19.916;2023-03-20T01:59:30;43.10;;;21.30;;
34302;SDS011;20785;50.020;19.916;2023-03-20T02:11:37;41.30;;;20.40;;
34302;SDS011;20785;50.020;19.916;2023-03-20T02:17:40;50.80;;;25.60;;
34302;SDS011;20785;50.020;19.916;2023-03-20T02:30:21;67.90;;;31.00;;
34302;SDS011;20785;50.020;19.916;2023-03-20T02:50:08;50.00;;;25.10;;
34302;SDS011;20785;50.020;19.916;2023-03-20T02:55:58;43.70;;;23.40;;
34302;SDS011;20785;50.020;19.916;2023-03-20T03:02:10;44.30;;;22.60;;
34302;SDS011;20785;50.020;19.916;2023-03-20T03:08:16;40.90;;;21.00;;
34302;SDS011;20785;50.020;19.916;2023-03-20T03:14:30;41.60;;;22.40;;
34302;SDS011;20785;50.020;19.916;2023-03-20T03:20:37;40.00;;;21.10;;
34302;SDS011;20785;50.020;19.916;2023-03-20T03:26:39;43.20;;;21.10;;
34302;SDS011;20785;50.020;19.916;2023-03-20T03:32:47;41.90;;;21.10;;
34302;SDS011;20785;50.020;19.916;2023-03-20T03:45:25;39.00;;;20.50;;
34302;SDS011;20785;50.020;19.916;2023-03-20T03:51:32;40.40;;;20.70;;
34302;SDS011;20785;50.020;19.916;2023-03-20T03:57:41;39.70;;;20.90;;
34302;SDS011;20785;50.020;19.916;2023-03-20T04:03:54;35.80;;;19.70;;
34302;SDS011;20785;50.020;19.916;2023-03-20T04:09:58;37.40;;;20.30;;
34302;SDS011;20785;50.020;19.916;2023-03-20T04:16:00;40.40;;;21.30;;
34302;SDS011;20785;50.020;19.916;2023-03-20T04:22:05;41.10;;;19.80;;
34302;SDS011;20785;50.020;19.916;2023-03-20T04:28:07;37.90;;;19.10;;
34302;SDS011;20785;50.020;19.916;2023-03-20T04:34:27;35.20;;;17.90;;
34302;SDS011;20785;50.020;19.916;2023-03-20T04:40:39;38.20;;;17.80;;
34302;SDS011;20785;50.020;19.916;2023-03-20T04:46:43;33.10;;;17.30;;
34302;SDS011;20785;50.020;19.916;2023-03-20T04:52:51;37.90;;;19.80;;
34302;SDS011;20785;50.020;19.916;2023-03-20T04:58:52;32.50;;;17.90;;
34302;SDS011;20785;50.020;19.916;2023-03-20T05:04:55;34.30;;;18.20;;
34302;SDS011;20785;50.020;19.916;2023-03-20T05:10:58;34.60;;;17.40;;
34302;SDS011;20785;50.020;19.916;2023-03-20T05:17:18;33.20;;;17.30;;
34302;SDS011;20785;50.020;19.916;2023-03-20T05:23:49;32.00;;;16.50;;
34302;SDS011;20785;50.020;19.916;2023-03-20T05:30:09;32.00;;;16.50;;
34302;SDS011;20785;50.020;19.916;2023-03-20T05:36:30;33.00;;;17.40;;
34302;SDS011;20785;50.020;19.916;2023-03-20T05:42:51;32.90;;;17.50;;
34302;SDS011;20785;50.020;19.916;2023-03-20T05:49:14;32.60;;;17.50;;
34302;SDS011;20785;50.020;19.916;2023-03-20T05:55:48;30.70;;;17.10;;
34302;SDS011;20785;50.020;19.916;2023-03-20T06:02:09;33.80;;;17.10;;
34302;SDS011;20785;50.020;19.916;2023-03-20T06:08:14;31.10;;;16.70;;
34302;SDS011;20785;50.020;19.916;2023-03-20T06:14:16;38.00;;;18.00;;
34302;SDS011;20785;50.020;19.916;2023-03-20T06:20:23;33.10;;;17.00;;
34302;SDS011;20785;50.020;19.916;2023-03-20T06:26:41;31.80;;;16.10;;
34302;SDS011;20785;50.020;19.916;2023-03-20T06:32:44;34.80;;;17.30;;
34302;SDS011;20785;50.020;19.916;2023-03-20T06:38:50;34.20;;;19.30;;
34302;SDS011;20785;50.020;19.916;2023-03-20T06:44:52;34.90;;;17.50;;
34302;SDS011;20785;50.020;19.916;2023-03-20T06:51:32;34.10;;;18.90;;
34302;SDS011;20785;50.020;19.916;2023-03-20T06:57:34;39.00;;;19.80;;
34302;SDS011;20785;50.020;19.916;2023-03-20T07:03:36;43.20;;;23.10;;
34302;SDS011;20785;50.020;19.916;2023-03-20T07:09:38;45.20;;;24.30;;
34302;SDS011;20785;50.020;19.916;2023-03-20T07:15:41;41.60;;;23.70;;
34302;SDS011;20785;50.020;19.916;2023-03-20T07:22:06;42.60;;;23.90;;
34302;SDS011;20785;50.020;19.916;2023-03-20T07:28:13;37.60;;;21.10;;
34302;SDS011;20785;50.020;19.916;2023-03-20T07:34:17;35.70;;;19.90;;
34302;SDS011;20785;50.020;19.916;2023-03-20T07:40:18;32.90;;;18.10;;
34302;SDS011;20785;50.020;19.916;2023-03-20T07:46:29;31.90;;;17.40;;
34302;SDS011;20785;50.020;19.916;2023-03-20T07:52:34;28.70;;;16.90;;
34302;SDS011;20785;50.020;19.916;2023-03-20T07:58:36;27.10;;;16.70;;
34302;SDS011;20785;50.020;19.916;2023-03-20T08:04:37;27.70;;;16.00;;
34302;SDS011;20785;50.020;19.916;2023-03-20T08:10:39;26.70;;;14.60;;
34302;SDS011;20785;50.020;19.916;2023-03-20T08:16:40;29.40;;;15.10;;
34302;SDS011;20785;50.020;19.916;2023-03-20T08:22:42;21.40;;;12.90;;
34302;SDS011;20785;50.020;19.916;2023-03-20T08:28:44;22.20;;;13.50;;
34302;SDS011;20785;50.020;19.916;2023-03-20T08:34:49;24.60;;;13.80;;
34302;SDS011;20785;50.020;19.916;2023-03-20T08:40:57;23.30;;;14.20;;
34302;SDS011;20785;50.020;19.916;2023-03-20T08:46:59;24.90;;;14.50;;
34302;SDS011;20785;50.020;19.916;2023-03-20T08:53:01;25.30;;;14.10;;
34302;SDS011;20785;50.020;19.916;2023-03-20T08:59:03;26.50;;;14.50;;
34302;SDS011;20785;50.020;19.916;2023-03-20T09:05:04;25.10;;;13.90;;
34302;SDS011;20785;50.020;19.916;2023-03-20T09:11:06;26.10;;;15.10;;
34302;SDS011;20785;50.020;19.916;2023-03-20T09:17:08;23.40;;;14.50;;
34302;SDS011;20785;50.020;19.916;2023-03-20T09:23:10;22.50;;;14.50;;
34302;SDS011;20785;50.020;19.916;2023-03-20T09:29:11;23.40;;;15.90;;
34302;SDS011;20785;50.020;19.916;2023-03-20T09:35:13;22.70;;;15.10;;
34302;SDS011;20785;50.020;19.916;2023-03-20T09:41:19;21.00;;;14.20;;
34302;SDS011;20785;50.020;19.916;2023-03-20T09:47:37;21.30;;;14.60;;
34302;SDS011;20785;50.020;19.916;2023-03-20T09:53:41;24.60;;;14.20;;
34302;SDS011;20785;50.020;19.916;2023-03-20T09:59:47;24.30;;;14.10;;
34302;SDS011;20785;50.020;19.916;2023-03-20T10:05:59;21.90;;;13.70;;
34302;SDS011;20785;50.020;19.916;2023-03-20T10:18:27;22.60;;;13.60;;
34302;SDS011;20785;50.020;19.916;2023-03-20T10:24:51;20.00;;;13.40;;
34302;SDS011;20785;50.020;19.916;2023-03-20T10:43:54;20.40;;;14.40;;
34302;SDS011;20785;50.020;19.916;2023-03-20T10:50:00;21.60;;;13.30;;
34302;SDS011;20785;50.020;19.916;2023-03-20T10:56:05;23.20;;;14.30;;
34302;SDS011;20785;50.020;19.916;2023-03-20T11:02:13;20.20;;;14.40;;
34302;SDS011;20785;50.020;19.916;2023-03-20T11:08:24;21.50;;;14.90;;
34302;SDS011;20785;50.020;19.916;2023-03-20T11:14:38;19.70;;;13.10;;
34302;SDS011;20785;50.020;19.916;2023-03-20T11:20:45;21.60;;;14.30;;
34302;SDS011;20785;50.020;19.916;2023-03-20T11:27:03;19.80;;;13.80;;
34302;SDS011;20785;50.020;19.916;2023-03-20T11:33:09;21.60;;;15.20;;
34302;SDS011;20785;50.020;19.916;2023-03-20T11:39:12;22.50;;;15.20;;
34302;SDS011;20785;50.020;19.916;2023-03-20T11:51:21;22.30;;;14.90;;
34302;SDS011;20785;50.020;19.916;2023-03-20T11:57:39;21.80;;;14.70;;
34302;SDS011;20785;50.020;19.916;2023-03-20T12:09:54;21.00;;;14.50;;
34302;SDS011;20785;50.020;19.916;2023-03-20T12:16:00;23.20;;;13.50;;
34302;SDS011;20785;50.020;19.916;2023-03-20T12:22:13;18.50;;;12.30;;
34302;SDS011;20785;50.020;19.916;2023-03-20T12:34:25;16.40;;;11.10;;
34302;SDS011;20785;50.020;19.916;2023-03-20T12:40:40;17.60;;;12.20;;
34302;SDS011;20785;50.020;19.916;2023-03-20T12:59:08;18.00;;;11.50;;
34302;SDS011;20785;50.020;19.916;2023-03-20T13:37:16;18.20;;;12.20;;
34302;SDS011;20785;50.020;19.916;2023-03-20T13:49:40;21.40;;;13.20;;
34302;SDS011;20785;50.020;19.916;2023-03-20T14:08:54;14.80;;;9.60;;
34302;SDS011;20785;50.020;19.916;2023-03-20T14:14:55;14.50;;;9.00;;
34302;SDS011;20785;50.020;19.916;2023-03-20T14:21:00;15.70;;;9.70;;
34302;SDS011;20785;50.020;19.916;2023-03-20T14:27:03;15.40;;;9.10;;
34302;SDS011;20785;50.020;19.916;2023-03-20T14:39:18;14.90;;;9.60;;
34302;SDS011;20785;50.020;19.916;2023-03-20T14:51:40;19.00;;;13.10;;
34302;SDS011;20785;50.020;19.916;2023-03-20T14:57:45;22.70;;;15.10;;
34302;SDS011;20785;50.020;19.916;2023-03-20T15:04:40;20.30;;;13.30;;
34302;SDS011;20785;50.020;19.916;2023-03-20T15:10:33;19.90;;;13.60;;
34302;SDS011;20785;50.020;19.916;2023-03-20T15:16:37;22.20;;;14.70;;
34302;SDS011;20785;50.020;19.916;2023-03-20T15:22:49;22.90;;;15.00;;
34302;SDS011;20785;50.020;19.916;2023-03-20T15:29:02;21.40;;;15.20;;
34302;SDS011;20785;50.020;19.916;2023-03-20T15:35:06;19.40;;;13.30;;
34302;SDS011;20785;50.020;19.916;2023-03-20T15:41:21;21.40;;;14.50;;
34302;SDS011;20785;50.020;19.916;2023-03-20T15:47:27;23.00;;;15.10;;
34302;SDS011;20785;50.020;19.916;2023-03-20T15:53:35;22.30;;;15.40;;
34302;SDS011;20785;50.020;19.916;2023-03-20T15:59:38;25.50;;;16.50;;
34302;SDS011;20785;50.020;19.916;2023-03-20T16:05:41;23.50;;;16.10;;
34302;SDS011;20785;50.020;19.916;2023-03-20T16:11:45;22.10;;;16.40;;
34302;SDS011;20785;50.020;19.916;2023-03-20T16:17:49;20.90;;;15.00;;
34302;SDS011;20785;50.020;19.916;2023-03-20T16:23:55;26.10;;;16.40;;
34302;SDS011;20785;50.020;19.916;2023-03-20T16:29:58;25.70;;;15.60;;
34302;SDS011;20785;50.020;19.916;2023-03-20T16:36:02;20.00;;;15.10;;
34302;SDS011;20785;50.020;19.916;2023-03-20T16:42:24;22.90;;;15.90;;
34302;SDS011;20785;50.020;19.916;2023-03-20T16:48:30;19.30;;;14.80;;
34302;SDS011;20785;50.020;19.916;2023-03-20T16:54:33;20.90;;;14.70;;
34302;SDS011;20785;50.020;19.916;2023-03-20T17:00:53;23.50;;;15.30;;
34302;SDS011;20785;50.020;19.916;2023-03-20T17:06:59;20.50;;;15.20;;
34302;SDS011;20785;50.020;19.916;2023-03-20T17:13:28;19.50;;;14.60;;
34302;SDS011;20785;50.020;19.916;2023-03-20T17:19:31;23.20;;;15.80;;
34302;SDS011;20785;50.020;19.916;2023-03-20T17:25:33;19.20;;;14.10;;
34302;SDS011;20785;50.020;19.916;2023-03-20T17:31:34;22.50;;;15.10;;
34302;SDS011;20785;50.020;19.916;2023-03-20T17:37:36;24.30;;;15.60;;
34302;SDS011;20785;50.020;19.916;2023-03-20T17:43:38;28.00;;;17.10;;
34302;SDS011;20785;50.020;19.916;2023-03-20T17:49:41;26.70;;;19.60;;
34302;SDS011;20785;50.020;19.916;2023-03-20T17:55:44;27.60;;;18.00;;
34302;SDS011;20785;50.020;19.916;2023-03-20T18:09:41;29.00;;;19.00;;
34302;SDS011;20785;50.020;19.916;2023-03-20T18:31:58;29.00;;;19.80;;
34302;SDS011;20785;50.020;19.916;2023-03-20T18:38:01;31.80;;;20.20;;
34302;SDS011;20785;50.020;19.916;2023-03-20T18:44:03;35.10;;;19.70;;
34302;SDS011;20785;50.020;19.916;2023-03-20T18:50:09;28.40;;;18.70;;
34302;SDS011;20785;50.020;19.916;2023-03-20T18:56:20;30.40;;;19.10;;
34302;SDS011;20785;50.020;19.916;2023-03-20T19:02:26;25.80;;;18.80;;
34302;SDS011;20785;50.020;19.916;2023-03-20T19:08:27;26.70;;;18.30;;
34302;SDS011;20785;50.020;19.916;2023-03-20T19:14:30;26.60;;;17.80;;
34302;SDS011;20785;50.020;19.916;2023-03-20T19:20:35;27.90;;;19.00;;
34302;SDS011;20785;50.020;19.916;2023-03-20T19:26:40;31.80;;;18.80;;
34302;SDS011;20785;50.020;19.916;2023-03-20T19:32:42;29.40;;;18.40;;
34302;SDS011;20785;50.020;19.916;2023-03-20T19:38:44;27.10;;;17.90;;
34302;SDS011;20785;50.020;19.916;2023-03-20T19:44:45;30.70;;;19.10;;
34302;SDS011;20785;50.020;19.916;2023-03-20T19:50:48;29.00;;;19.10;;
34302;SDS011;20785;50.020;19.916;2023-03-20T19:56:52;29.10;;;19.80;;
34302;SDS011;20785;50.020;19.916;2023-03-20T20:02:53;30.30;;;19.80;;
34302;SDS011;20785;50.020;19.916;2023-03-20T20:08:56;35.20;;;23.30;;
34302;SDS011;20785;50.020;19.916;2023-03-20T20:14:58;35.10;;;21.70;;
34302;SDS011;20785;50.020;19.916;2023-03-20T20:21:00;36.40;;;23.60;;
34302;SDS011;20785;50.020;19.916;2023-03-20T20:27:22;44.50;;;27.70;;
34302;SDS011;20785;50.020;19.916;2023-03-20T20:33:24;44.20;;;27.40;;
34302;SDS011;20785;50.020;19.916;2023-03-20T20:39:30;44.70;;;29.00;;
34302;SDS011;20785;50.020;19.916;2023-03-20T20:45:32;42.80;;;27.60;;
34302;SDS011;20785;50.020;19.916;2023-03-20T20:51:35;47.20;;;30.30;;
34302;SDS011;20785;50.020;19.916;2023-03-20T20:57:36;57.30;;;34.10;;
34302;SDS011;20785;50.020;19.916;2023-03-20T21:03:38;56.20;;;35.30;;
34302;SDS011;20785;50.020;19.916;2023-03-20T21:09:40;56.70;;;36.20;;
34302;SDS011;20785;50.020;19.916;2023-03-20T21:15:42;60.40;;;38.70;;
34302;SDS011;20785;50.020;19.916;2023-03-20T21:21:46;72.20;;;44.70;;
34302;SDS011;20785;50.020;19.916;2023-03-20T21:27:48;78.20;;;49.20;;
34302;SDS011;20785;50.020;19.916;2023-03-20T21:33:52;82.40;;;50.90;;
34302;SDS011;20785;50.020;19.916;2023-03-20T21:39:57;92.30;;;54.80;;
34302;SDS011;20785;50.020;19.916;2023-03-20T21:46:00;88.20;;;52.10;;
34302;SDS011;20785;50.020;19.916;2023-03-20T21:52:22;77.20;;;48.20;;
34302;SDS011;20785;50.020;19.916;2023-03-20T21:58:44;75.40;;;46.40;;
34302;SDS011;20785;50.020;19.916;2023-03-20T22:05:07;78.60;;;46.40;;
34302;SDS011;20785;50.020;19.916;2023-03-20T22:11:34;67.90;;;40.70;;
34302;SDS011;20785;50.020;19.916;2023-03-20T22:18:00;60.60;;;37.60;;
34302;SDS011;20785;50.020;19.916;2023-03-20T22:24:32;53.20;;;33.00;;
34302;SDS011;20785;50.020;19.916;2023-03-20T22:30:55;52.20;;;32.10;;
34302;SDS011;20785;50.020;19.916;2023-03-20T22:37:17;55.80;;;34.60;;
34302;SDS011;20785;50.020;19.916;2023-03-20T22:43:43;56.80;;;36.00;;
34302;SDS011;20785;50.020;19.916;2023-03-20T22:50:05;61.80;;;38.60;;
34302;SDS011;20785;50.020;19.916;2023-03-20T22:56:08;59.80;;;37.00;;
34302;SDS011;20785;50.020;19.916;2023-03-20T23:02:11;55.70;;;32.90;;
34302;SDS011;20785;50.020;19.916;2023-03-20T23:08:12;45.90;;;27.50;;
34302;SDS011;20785;50.020;19.916;2023-03-20T23:14:17;42.10;;;26.30;;
34302;SDS011;20785;50.020;19.916;2023-03-20T23:20:23;39.80;;;24.10;;
34302;SDS011;20785;50.020;19.916;2023-03-20T23:26:25;35.60;;;21.90;;
34302;SDS011;20785;50.020;19.916;2023-03-20T23:32:26;36.00;;;22.30;;
34302;SDS011;20785;50.020;19.916;2023-03-20T23:38:28;31.70;;;19.80;;
34302;SDS011;20785;50.020;19.916;2023-03-20T23:44:30;27.40;;;18.00;;
34302;SDS011;20785;50.020;19.916;2023-03-20T23:50:31;29.40;;;17.20;;
34302;SDS011;20785;50.020;19.916;2023-03-20T23:56:52;27.60;;;17.10;;
